Time;durP1;ratioP1;P1;durP2;ratioP2;P2;SDS_P1;SDS_P2;PMS_P1;PMS_P2;Temp;Humidity;BMP_temperature;BMP_pressure;BME280_temperature;BME280_humidity;BME280_pressure;Samples;Min_cycle;Max_cycle;Signal;HPM_P1;HPM_P2
2023/03/27 00:01:24;;;;;;;9.05;1.30;;;4.90;99.90;;;;;;4935675;29;20253;-75
2023/03/27 00:03:52;;;;;;;9.50;1.60;;;4.90;99.90;;;;;;4934264;29;20211;-75
2023/03/27 00:06:19;;;;;;;12.15;1.55;;;4.90;99.90;;;;;;4935549;29;20187;-75
2023/03/27 00:08:49;;;;;;;12.10;1.75;;;4.90;99.90;;;;;;4935746;29;20742;-75
2023/03/27 00:11:16;;;;;;;10.93;1.88;;;4.90;99.90;;;;;;4936334;29;20172;-75
2023/03/27 00:13:43;;;;;;;6.32;1.55;;;4.90;99.90;;;;;;4936198;29;20581;-75
2023/03/27 00:16:10;;;;;;;6.15;1.48;;;4.90;99.90;;;;;;4936356;29;20322;-75
2023/03/27 00:18:36;;;;;;;10.63;1.88;;;4.90;99.90;;;;;;4936059;29;20183;-75
2023/03/27 00:21:03;;;;;;;14.27;1.70;;;4.80;99.90;;;;;;4935728;29;20636;-75
2023/03/27 00:23:32;;;;;;;11.73;1.40;;;4.90;99.90;;;;;;4936314;29;20257;-75
2023/03/27 00:25:59;;;;;;;8.13;1.38;;;4.90;99.90;;;;;;4950216;29;20205;-76
2023/03/27 00:28:27;;;;;;;6.45;1.60;;;4.90;99.90;;;;;;4934786;29;20179;-75
2023/03/27 00:30:55;;;;;;;9.77;1.40;;;4.90;99.90;;;;;;4935865;29;20215;-75
2023/03/27 00:33:21;;;;;;;8.18;1.50;;;4.90;99.90;;;;;;4934736;29;20630;-75
2023/03/27 00:35:49;;;;;;;12.82;1.33;;;4.80;99.90;;;;;;4936073;29;20189;-76
2023/03/27 00:38:15;;;;;;;6.90;1.50;;;4.80;99.90;;;;;;4950100;29;20219;-75
2023/03/27 00:40:45;;;;;;;11.50;1.55;;;4.80;99.90;;;;;;4951227;28;20591;-75
2023/03/27 00:43:35;;;;;;;4.28;1.20;;;4.80;99.90;;;;;;4951028;28;20727;-75
2023/03/27 00:46:32;;;;;;;5.22;1.40;;;4.80;99.90;;;;;;4935983;29;20251;-75
2023/03/27 00:49:02;;;;;;;9.95;1.33;;;4.90;99.90;;;;;;4935256;29;20192;-75
2023/03/27 00:51:30;;;;;;;7.22;1.20;;;4.90;99.90;;;;;;4950922;29;20206;-75
2023/03/27 00:53:56;;;;;;;11.00;1.30;;;4.90;99.90;;;;;;4935766;29;20250;-75
2023/03/27 00:56:23;;;;;;;12.25;1.40;;;4.90;99.90;;;;;;4935333;29;20514;-75
2023/03/27 00:58:54;;;;;;;9.35;1.55;;;4.90;99.90;;;;;;4935634;29;20180;-75
2023/03/27 01:01:24;;;;;;;7.97;1.42;;;4.90;99.90;;;;;;4919339;29;20238;-76
2023/03/27 01:03:51;;;;;;;15.73;1.60;;;4.80;99.90;;;;;;4934869;29;20215;-76
2023/03/27 01:06:19;;;;;;;8.38;1.38;;;4.80;99.90;;;;;;4949892;29;20187;-75
2023/03/27 01:08:45;;;;;;;9.15;1.60;;;4.80;99.90;;;;;;4934919;29;20226;-76
2023/03/27 01:11:32;;;;;;;11.95;1.50;;;4.80;99.90;;;;;;4950163;29;20214;-75
2023/03/27 01:14:22;;;;;;;13.40;1.80;;;4.80;99.90;;;;;;4934054;29;20658;-76
2023/03/27 01:17:10;;;;;;;6.53;1.08;;;4.80;99.90;;;;;;4936084;29;20190;-75
2023/03/27 01:20:13;;;;;;;18.20;1.52;;;4.80;99.90;;;;;;4954450;29;20187;-76
2023/03/27 01:23:05;;;;;;;11.68;1.63;;;4.80;99.90;;;;;;4953484;29;20266;-75
2023/03/27 01:25:59;;;;;;;4.05;1.23;;;4.70;99.90;;;;;;4937244;29;20231;-75
2023/03/27 01:28:25;;;;;;;4.00;1.48;;;4.70;99.90;;;;;;4953646;29;20270;-75
2023/03/27 01:30:51;;;;;;;6.15;1.20;;;4.70;99.90;;;;;;4953303;29;20266;-75
2023/03/27 01:33:49;;;;;;;4.82;1.45;;;4.70;99.90;;;;;;4937923;29;20230;-75
2023/03/27 01:36:50;;;;;;;7.28;1.38;;;4.70;99.90;;;;;;4954150;29;20535;-76
2023/03/27 01:39:53;;;;;;;11.93;1.70;;;4.60;99.90;;;;;;4937362;29;20651;-76
2023/03/27 01:42:25;;;;;;;10.38;1.52;;;4.70;99.90;;;;;;4937447;29;20269;-76
2023/03/27 01:45:04;;;;;;;8.35;1.65;;;4.60;99.90;;;;;;4938928;29;20200;-78
2023/03/27 01:47:42;;;;;;;7.53;1.33;;;4.60;99.90;;;;;;4939035;29;20250;-75
2023/03/27 01:50:17;;;;;;;8.20;1.38;;;4.60;99.90;;;;;;4938527;29;20171;-76
2023/03/27 01:52:49;;;;;;;5.65;1.20;;;4.60;99.90;;;;;;4937178;29;20186;-75
2023/03/27 01:55:20;;;;;;;11.07;1.35;;;4.60;99.90;;;;;;4937199;29;20175;-75
2023/03/27 01:58:03;;;;;;;8.13;1.55;;;4.50;99.90;;;;;;4952654;29;20203;-77
2023/03/27 02:00:34;;;;;;;11.20;1.40;;;4.60;99.90;;;;;;4937219;29;20506;-75
2023/03/27 02:03:28;;;;;;;8.95;1.35;;;4.60;99.90;;;;;;4952702;29;20289;-75
2023/03/27 02:06:09;;;;;;;6.47;1.20;;;4.60;99.90;;;;;;4937168;29;20540;-75
2023/03/27 02:09:08;;;;;;;12.52;1.60;;;4.70;99.90;;;;;;4938777;29;20176;-75
2023/03/27 02:11:42;;;;;;;9.95;1.50;;;4.60;99.90;;;;;;4933200;29;20187;-76
2023/03/27 02:14:14;;;;;;;6.07;1.42;;;4.70;99.90;;;;;;4937660;29;20325;-75
2023/03/27 02:16:47;;;;;;;12.95;1.55;;;4.70;99.90;;;;;;4936671;29;20190;-77
2023/03/27 02:19:20;;;;;;;13.63;1.95;;;4.70;99.90;;;;;;4938001;29;20183;-75
2023/03/27 02:21:47;;;;;;;13.25;1.83;;;4.70;99.90;;;;;;4936444;29;20237;-76
2023/03/27 02:24:17;;;;;;;13.30;2.05;;;4.60;99.90;;;;;;4921363;29;20281;-75
2023/03/27 02:26:44;;;;;;;9.27;1.58;;;4.60;99.90;;;;;;4952254;29;20640;-76
2023/03/27 02:29:30;;;;;;;7.25;1.65;;;4.60;99.90;;;;;;4951893;28;20181;-75
2023/03/27 02:32:05;;;;;;;7.57;1.40;;;4.60;99.90;;;;;;4936497;29;20184;-78
2023/03/27 02:34:41;;;;;;;7.63;1.63;;;4.50;99.90;;;;;;4952429;29;20183;-76
2023/03/27 02:37:38;;;;;;;6.90;1.45;;;4.50;99.90;;;;;;4952253;29;20632;-76
2023/03/27 02:40:42;;;;;;;10.52;1.75;;;4.40;99.90;;;;;;4937751;29;20747;-76
2023/03/27 02:43:33;;;;;;;9.48;1.52;;;4.40;99.90;;;;;;4937379;29;20694;-75
2023/03/27 02:46:07;;;;;;;6.82;1.48;;;4.40;99.90;;;;;;4952665;29;20227;-75
2023/03/27 02:48:38;;;;;;;10.07;1.45;;;4.40;99.90;;;;;;4937734;29;20167;-75
2023/03/27 02:51:15;;;;;;;9.93;1.70;;;4.40;99.90;;;;;;4936200;29;20168;-74
2023/03/27 02:53:56;;;;;;;8.02;1.52;;;4.40;99.90;;;;;;4936113;29;20175;-74
2023/03/27 02:56:27;;;;;;;9.68;1.80;;;4.40;99.90;;;;;;4936812;29;20172;-75
2023/03/27 02:59:18;;;;;;;8.50;1.35;;;4.50;99.90;;;;;;4951884;28;20628;-75
2023/03/27 03:01:44;;;;;;;7.75;1.50;;;4.50;99.90;;;;;;4937711;29;20216;-75
2023/03/27 03:04:24;;;;;;;8.02;1.70;;;4.40;99.90;;;;;;4936412;29;20230;-75
2023/03/27 03:07:13;;;;;;;9.18;1.50;;;4.50;99.90;;;;;;4942955;28;20202;-75
2023/03/27 03:09:40;;;;;;;9.90;1.42;;;4.40;99.90;;;;;;4935583;29;20179;-74
2023/03/27 03:12:07;;;;;;;10.75;1.63;;;4.40;99.90;;;;;;4936902;29;20624;-75
2023/03/27 03:14:42;;;;;;;18.95;1.98;;;4.40;99.90;;;;;;4935560;29;20223;-75
2023/03/27 03:17:10;;;;;;;7.30;1.70;;;4.50;99.90;;;;;;4935427;29;20179;-75
2023/03/27 03:19:36;;;;;;;10.52;1.80;;;4.40;99.90;;;;;;4951523;29;20695;-74
2023/03/27 03:22:03;;;;;;;6.47;1.33;;;4.40;99.90;;;;;;4934865;29;20278;-75
2023/03/27 03:24:32;;;;;;;6.47;1.40;;;4.40;99.90;;;;;;4935263;29;20699;-75
2023/03/27 03:27:01;;;;;;;11.25;1.80;;;4.40;99.90;;;;;;4951304;29;20261;-75
2023/03/27 03:29:34;;;;;;;7.80;1.63;;;4.50;99.90;;;;;;4951799;29;20198;-74
2023/03/27 03:32:09;;;;;;;12.40;1.77;;;4.40;99.90;;;;;;4921546;29;20191;-74
2023/03/27 03:34:36;;;;;;;11.88;1.90;;;4.40;99.90;;;;;;4951316;29;20196;-74
2023/03/27 03:37:01;;;;;;;9.40;1.83;;;4.50;99.90;;;;;;4934654;29;20187;-74
2023/03/27 03:39:30;;;;;;;10.30;1.77;;;4.40;99.90;;;;;;4950361;28;20234;-73
2023/03/27 03:41:56;;;;;;;12.82;1.83;;;4.40;99.90;;;;;;4935067;29;20187;-73
2023/03/27 03:44:21;;;;;;;8.70;1.77;;;4.40;99.90;;;;;;4951007;29;20713;-73
2023/03/27 03:46:47;;;;;;;12.68;1.70;;;4.40;99.90;;;;;;4934826;29;20183;-74
2023/03/27 03:49:19;;;;;;;13.57;2.13;;;4.40;99.90;;;;;;4936291;29;20197;-73
2023/03/27 03:51:45;;;;;;;9.90;1.85;;;4.40;99.90;;;;;;4934899;29;20191;-74
2023/03/27 03:54:11;;;;;;;9.75;1.80;;;4.40;99.90;;;;;;4936125;29;20662;-77
2023/03/27 03:56:41;;;;;;;11.32;2.08;;;4.40;99.90;;;;;;4951015;28;20299;-74
2023/03/27 03:59:08;;;;;;;9.15;2.13;;;4.40;99.90;;;;;;4950722;29;20199;-74
2023/03/27 04:01:34;;;;;;;11.63;2.13;;;4.30;99.90;;;;;;4950624;29;20222;-74
2023/03/27 04:04:03;;;;;;;8.27;1.70;;;4.30;99.90;;;;;;4935877;29;20219;-74
2023/03/27 04:06:47;;;;;;;12.43;1.83;;;4.30;99.90;;;;;;4950631;28;20175;-73
2023/03/27 04:09:14;;;;;;;11.88;2.13;;;4.30;99.90;;;;;;4936191;29;20183;-74
2023/03/27 04:12:03;;;;;;;8.68;2.13;;;4.30;99.90;;;;;;4947336;28;20188;-74
2023/03/27 04:14:55;;;;;;;14.80;2.08;;;4.30;99.90;;;;;;4951290;28;20326;-79
2023/03/27 04:17:42;;;;;;;8.05;1.95;;;4.30;99.90;;;;;;4936459;29;20516;-73
2023/03/27 04:20:11;;;;;;;14.68;2.08;;;4.30;99.90;;;;;;4934497;29;20647;-74
2023/03/27 04:22:37;;;;;;;12.73;2.20;;;4.30;99.90;;;;;;4935049;29;20195;-74
2023/03/27 04:25:07;;;;;;;8.48;2.13;;;4.30;99.90;;;;;;4934647;29;20668;-74
2023/03/27 04:27:34;;;;;;;11.45;2.05;;;4.30;99.90;;;;;;4935184;29;20226;-74
2023/03/27 04:30:14;;;;;;;15.70;2.40;;;4.30;99.90;;;;;;4950767;29;20183;-74
2023/03/27 04:33:06;;;;;;;14.82;1.98;;;4.30;99.90;;;;;;4934105;29;20199;-74
2023/03/27 04:35:51;;;;;;;12.80;1.75;;;4.30;99.90;;;;;;4935236;29;20534;-74
2023/03/27 04:38:20;;;;;;;9.02;1.48;;;4.30;99.90;;;;;;4935261;29;20677;-74
2023/03/27 04:40:51;;;;;;;7.90;1.40;;;4.30;99.90;;;;;;4936117;29;20168;-74
2023/03/27 04:43:17;;;;;;;6.63;1.25;;;4.20;99.90;;;;;;4935719;29;20734;-74
2023/03/27 04:45:47;;;;;;;13.52;1.58;;;4.30;99.90;;;;;;4934356;29;20250;-74
2023/03/27 04:48:14;;;;;;;7.03;1.20;;;4.30;99.90;;;;;;4950605;29;20655;-74
2023/03/27 04:50:48;;;;;;;5.93;1.25;;;4.20;99.90;;;;;;4934262;29;20647;-74
2023/03/27 04:53:19;;;;;;;5.47;1.13;;;4.40;99.90;;;;;;4938877;29;20210;-74
2023/03/27 04:55:49;;;;;;;10.02;1.30;;;4.40;99.90;;;;;;4937982;29;20624;-73
2023/03/27 04:58:17;;;;;;;7.28;1.27;;;4.40;99.90;;;;;;4938616;29;20527;-75
2023/03/27 05:00:49;;;;;;;3.97;1.17;;;4.40;99.90;;;;;;4938642;29;20531;-73
2023/03/27 05:03:39;;;;;;;5.43;0.70;;;4.40;99.90;;;;;;4946668;28;20223;-73
2023/03/27 05:06:10;;;;;;;2.13;0.77;;;4.30;99.90;;;;;;4937965;29;20192;-73
2023/03/27 05:08:37;;;;;;;4.18;0.82;;;4.30;99.90;;;;;;4938487;29;20183;-74
2023/03/27 05:11:03;;;;;;;5.35;1.00;;;4.30;99.90;;;;;;4938223;29;20639;-73
2023/03/27 05:13:38;;;;;;;3.90;0.68;;;4.30;99.90;;;;;;4953862;28;20714;-75
2023/03/27 05:16:05;;;;;;;7.68;0.80;;;4.30;99.90;;;;;;4953013;29;20233;-75
2023/03/27 05:18:40;;;;;;;4.70;0.93;;;4.20;99.90;;;;;;4938523;29;20198;-75
2023/03/27 05:21:06;;;;;;;6.25;0.90;;;4.20;99.90;;;;;;4937247;29;20187;-73
2023/03/27 05:23:32;;;;;;;2.65;0.82;;;4.20;99.90;;;;;;4953273;29;20241;-74
2023/03/27 05:25:59;;;;;;;7.15;0.98;;;4.30;99.90;;;;;;4953920;29;20194;-75
2023/03/27 05:28:31;;;;;;;6.38;1.08;;;4.20;99.90;;;;;;4938353;29;20263;-73
2023/03/27 05:30:57;;;;;;;6.93;1.00;;;4.20;99.90;;;;;;4953602;29;20720;-74
2023/03/27 05:33:23;;;;;;;4.38;1.10;;;4.20;99.90;;;;;;4937718;29;20698;-74
2023/03/27 05:35:51;;;;;;;8.20;1.15;;;4.20;99.90;;;;;;4937688;29;20242;-73
2023/03/27 05:38:18;;;;;;;5.18;0.93;;;4.10;99.90;;;;;;4953112;29;20191;-74
2023/03/27 05:41:09;;;;;;;7.00;1.13;;;4.10;99.90;;;;;;4952796;28;20180;-77
2023/03/27 05:43:39;;;;;;;11.88;1.25;;;4.20;99.90;;;;;;4937607;29;20322;-74
2023/03/27 05:46:05;;;;;;;8.00;1.40;;;4.10;99.90;;;;;;4922226;29;20617;-74
2023/03/27 05:48:31;;;;;;;5.55;1.10;;;4.20;99.90;;;;;;4953584;29;20217;-74
2023/03/27 05:51:00;;;;;;;4.45;0.98;;;4.10;99.90;;;;;;4937485;29;20191;-74
2023/03/27 05:53:26;;;;;;;9.02;1.10;;;4.10;99.90;;;;;;4953013;29;20187;-74
2023/03/27 05:56:10;;;;;;;8.98;1.48;;;4.20;99.90;;;;;;4937925;29;20214;-73
2023/03/27 05:58:47;;;;;;;4.22;1.20;;;4.20;99.90;;;;;;4952907;29;20187;-77
2023/03/27 06:01:13;;;;;;;8.27;1.40;;;4.20;99.90;;;;;;4937636;29;20190;-75
2023/03/27 06:03:39;;;;;;;7.55;1.15;;;4.20;99.90;;;;;;4936119;29;20702;-74
2023/03/27 06:06:13;;;;;;;4.13;1.30;;;4.20;99.90;;;;;;4937103;29;20176;-73
2023/03/27 06:08:41;;;;;;;9.73;1.50;;;4.20;99.90;;;;;;4936952;29;20631;-74
2023/03/27 06:11:12;;;;;;;9.73;1.60;;;4.20;99.90;;;;;;4937263;29;20191;-72
2023/03/27 06:13:44;;;;;;;5.25;1.20;;;4.30;99.90;;;;;;4937142;29;20258;-76
2023/03/27 06:16:15;;;;;;;5.25;1.20;;;4.30;99.90;;;;;;4936376;29;20242;-73
2023/03/27 06:18:41;;;;;;;7.07;1.40;;;4.30;99.90;;;;;;4937885;29;20192;-74
2023/03/27 06:21:08;;;;;;;5.38;1.20;;;4.30;99.90;;;;;;4937150;29;20526;-73
2023/03/27 06:23:34;;;;;;;6.15;1.27;;;4.40;99.90;;;;;;4952313;28;20222;-75
2023/03/27 06:26:01;;;;;;;10.30;1.15;;;4.40;99.90;;;;;;4952697;29;20208;-73
2023/03/27 06:28:29;;;;;;;6.95;1.15;;;4.50;99.90;;;;;;4952340;29;20671;-76
2023/03/27 06:30:56;;;;;;;7.53;1.23;;;4.50;99.90;;;;;;4952529;29;20639;-74
2023/03/27 06:33:51;;;;;;;3.58;1.15;;;4.60;99.90;;;;;;4936930;29;20199;-73
2023/03/27 06:36:33;;;;;;;7.53;1.40;;;4.60;99.90;;;;;;4936406;29;20195;-73
2023/03/27 06:39:05;;;;;;;9.95;1.50;;;4.70;99.90;;;;;;4936097;29;20274;-79
2023/03/27 06:41:31;;;;;;;6.03;1.40;;;4.70;99.90;;;;;;4952839;29;20274;-79
2023/03/27 06:44:04;;;;;;;7.60;1.25;;;4.70;99.90;;;;;;4937390;29;20211;-72
2023/03/27 06:46:44;;;;;;;5.75;1.15;;;4.80;99.90;;;;;;4952705;29;20517;-75
2023/03/27 06:49:17;;;;;;;8.98;1.40;;;4.90;99.90;;;;;;4952201;29;20326;-73
2023/03/27 06:51:42;;;;;;;8.57;1.40;;;4.90;99.90;;;;;;4951842;29;20183;-73
2023/03/27 06:54:12;;;;;;;9.07;1.25;;;5.00;99.90;;;;;;4937369;29;20268;-75
2023/03/27 06:56:43;;;;;;;13.02;1.60;;;5.10;99.90;;;;;;4952156;28;20632;-77
2023/03/27 06:59:17;;;;;;;13.52;1.60;;;5.20;99.90;;;;;;4952079;29;20183;-75
2023/03/27 07:01:45;;;;;;;9.70;1.70;;;5.30;99.90;;;;;;4951356;28;20356;-74
2023/03/27 07:04:40;;;;;;;9.85;1.60;;;5.40;99.90;;;;;;4952482;28;20234;-73
2023/03/27 07:07:13;;;;;;;8.18;1.67;;;5.60;99.90;;;;;;4936449;29;20179;-73
2023/03/27 07:09:41;;;;;;;14.52;1.73;;;5.70;99.90;;;;;;4951476;29;20206;-73
2023/03/27 07:12:08;;;;;;;8.32;1.70;;;5.80;99.90;;;;;;4951553;29;20541;-73
2023/03/27 07:14:36;;;;;;;16.63;1.65;;;5.80;99.90;;;;;;4935495;29;20209;-73
2023/03/27 07:17:02;;;;;;;16.27;1.40;;;5.90;99.90;;;;;;4951634;29;20187;-73
2023/03/27 07:19:45;;;;;;;13.13;1.67;;;6.00;99.90;;;;;;4922760;29;20223;-73
2023/03/27 07:22:12;;;;;;;10.43;1.92;;;6.00;99.90;;;;;;4935355;29;20179;-80
2023/03/27 07:24:39;;;;;;;18.02;2.00;;;6.00;99.90;;;;;;4951069;29;20593;-73
2023/03/27 07:27:06;;;;;;;10.13;1.60;;;5.90;99.90;;;;;;4935392;29;20281;-73
2023/03/27 07:29:34;;;;;;;11.52;1.58;;;5.90;99.90;;;;;;4936358;29;20570;-73
2023/03/27 07:32:01;;;;;;;8.43;1.70;;;5.90;99.90;;;;;;4951347;29;20223;-74
2023/03/27 07:34:32;;;;;;;8.25;1.60;;;6.10;99.90;;;;;;4951660;29;20612;-73
2023/03/27 07:37:21;;;;;;;8.15;1.27;;;6.20;99.90;;;;;;4922735;29;20206;-73
2023/03/27 07:40:21;;;;;;;9.30;1.67;;;6.60;99.90;;;;;;4946280;28;20583;-73
2023/03/27 07:43:05;;;;;;;4.28;1.30;;;6.90;99.90;;;;;;4922301;29;20171;-73
2023/03/27 07:45:33;;;;;;;8.65;1.30;;;7.10;99.90;;;;;;4935508;29;20209;-74
2023/03/27 07:48:09;;;;;;;5.97;1.40;;;7.10;99.90;;;;;;4935164;29;20523;-72
2023/03/27 07:50:36;;;;;;;5.53;1.05;;;7.00;99.90;;;;;;4936128;29;20213;-73
2023/03/27 07:53:05;;;;;;;7.78;1.80;;;7.00;99.90;;;;;;4950714;29;20274;-72
2023/03/27 07:55:32;;;;;;;8.20;1.30;;;7.10;99.90;;;;;;4935285;29;20266;-73
2023/03/27 07:58:05;;;;;;;6.60;1.52;;;7.30;99.90;;;;;;4935365;29;20525;-73
2023/03/27 08:00:34;;;;;;;6.20;1.13;;;7.50;99.90;;;;;;4935269;29;20312;-73
2023/03/27 08:03:13;;;;;;;6.05;1.30;;;7.90;99.90;;;;;;4920475;29;20213;-73
2023/03/27 08:05:44;;;;;;;4.63;1.20;;;8.30;99.90;;;;;;4935858;29;20539;-72
2023/03/27 08:08:12;;;;;;;4.45;1.17;;;8.60;99.90;;;;;;4951171;29;20493;-72
2023/03/27 08:10:46;;;;;;;7.10;1.50;;;8.80;99.90;;;;;;4951699;29;20561;-74
2023/03/27 08:13:13;;;;;;;5.85;1.20;;;9.00;99.90;;;;;;4934890;29;20254;-74
2023/03/27 08:15:39;;;;;;;4.30;1.10;;;9.30;99.90;;;;;;4950374;29;20700;-73
2023/03/27 08:18:18;;;;;;;5.32;1.70;;;9.60;99.90;;;;;;4921096;29;20207;-72
2023/03/27 08:20:44;;;;;;;4.72;1.30;;;9.90;99.90;;;;;;4936122;29;20183;-73
2023/03/27 08:23:10;;;;;;;6.20;1.50;;;10.20;99.90;;;;;;4951935;29;20194;-73
2023/03/27 08:25:59;;;;;;;7.32;1.60;;;10.60;99.90;;;;;;4935015;29;20765;-72
2023/03/27 08:28:32;;;;;;;4.93;1.30;;;11.00;99.00;;;;;;4954955;28;20202;-74
2023/03/27 08:30:59;;;;;;;8.20;1.30;;;11.10;99.10;;;;;;4940015;29;20246;-74
2023/03/27 08:33:27;;;;;;;5.90;1.50;;;11.40;98.70;;;;;;4940302;29;20195;-74
2023/03/27 08:35:56;;;;;;;7.28;1.35;;;11.50;98.70;;;;;;4938436;29;20226;-74
2023/03/27 08:38:22;;;;;;;4.32;1.27;;;11.60;98.30;;;;;;4938772;29;20179;-73
2023/03/27 08:41:02;;;;;;;8.30;1.58;;;11.80;98.60;;;;;;4954751;29;20217;-74
2023/03/27 08:43:41;;;;;;;4.55;1.25;;;12.20;98.20;;;;;;4938703;29;20756;-74
2023/03/27 08:46:21;;;;;;;6.35;1.50;;;12.30;97.10;;;;;;4954726;29;20182;-73
2023/03/27 08:49:11;;;;;;;8.25;1.42;;;12.30;97.30;;;;;;4954538;28;20178;-75
2023/03/27 08:51:57;;;;;;;7.10;1.50;;;12.20;97.30;;;;;;4954509;29;20513;-73
2023/03/27 08:54:35;;;;;;;6.80;1.23;;;12.00;97.30;;;;;;4939087;29;20522;-73
2023/03/27 08:57:15;;;;;;;8.70;1.40;;;11.50;97.70;;;;;;4938265;29;20183;-73
2023/03/27 08:59:41;;;;;;;7.55;1.50;;;11.20;98.00;;;;;;4954884;29;20178;-74
2023/03/27 09:02:36;;;;;;;5.18;1.27;;;11.00;98.10;;;;;;4937896;29;20180;-75
2023/03/27 09:05:18;;;;;;;4.10;1.10;;;10.90;97.90;;;;;;4953451;28;20214;-75
2023/03/27 09:08:04;;;;;;;7.70;1.33;;;11.10;96.10;;;;;;4954535;29;20416;-74
2023/03/27 09:10:44;;;;;;;4.50;0.90;;;11.40;96.70;;;;;;4954297;29;20683;-75
2023/03/27 09:13:34;;;;;;;5.68;1.10;;;12.00;96.20;;;;;;4939094;29;20163;-75
2023/03/27 09:16:06;;;;;;;3.08;0.93;;;12.50;94.20;;;;;;4937987;29;20233;-75
2023/03/27 09:18:58;;;;;;;2.75;1.08;;;12.80;91.90;;;;;;4938792;29;20183;-75
2023/03/27 09:21:49;;;;;;;7.32;1.00;;;12.60;90.90;;;;;;4934476;29;20603;-74
2023/03/27 09:24:40;;;;;;;5.43;1.20;;;12.20;90.40;;;;;;4953868;29;20223;-74
2023/03/27 09:27:20;;;;;;;5.10;1.55;;;12.20;92.30;;;;;;4938829;29;20210;-74
2023/03/27 09:30:02;;;;;;;4.80;1.08;;;12.30;92.10;;;;;;4938496;28;20254;-74
2023/03/27 09:32:55;;;;;;;2.75;0.80;;;12.40;91.50;;;;;;4943061;28;20531;-75
2023/03/27 09:35:22;;;;;;;5.07;1.63;;;12.40;88.30;;;;;;4937603;29;20175;-74
2023/03/27 09:37:57;;;;;;;6.30;1.00;;;12.30;89.20;;;;;;4937328;29;20183;-75
2023/03/27 09:40:33;;;;;;;4.68;1.15;;;12.20;88.50;;;;;;4937600;29;20634;-74
2023/03/27 09:43:12;;;;;;;6.55;0.98;;;12.20;88.90;;;;;;4937083;29;20175;-75
2023/03/27 09:45:40;;;;;;;4.10;0.80;;;12.10;86.90;;;;;;4953936;29;20242;-81
2023/03/27 09:48:16;;;;;;;3.63;0.77;;;11.90;88.10;;;;;;4938541;29;20230;-75
2023/03/27 09:50:46;;;;;;;2.92;0.93;;;11.80;87.50;;;;;;4953428;29;20175;-75
2023/03/27 09:53:38;;;;;;;7.13;1.08;;;11.90;86.20;;;;;;4939056;29;20199;-75
2023/03/27 09:56:17;;;;;;;6.70;1.17;;;12.00;85.30;;;;;;4937224;29;20175;-75
2023/03/27 09:58:50;;;;;;;4.28;1.00;;;12.00;85.90;;;;;;4953701;29;20179;-75
2023/03/27 10:01:29;;;;;;;7.63;1.20;;;11.90;87.10;;;;;;4937089;29;20187;-75
2023/03/27 10:04:14;;;;;;;8.43;1.35;;;11.80;86.40;;;;;;4952856;28;20211;-74
2023/03/27 10:06:46;;;;;;;5.47;1.20;;;11.90;85.10;;;;;;4952504;28;20189;-74
2023/03/27 10:09:28;;;;;;;5.18;1.20;;;12.10;85.10;;;;;;4937072;29;20288;-75
2023/03/27 10:12:19;;;;;;;3.78;1.00;;;12.40;84.20;;;;;;4952613;28;20178;-78
2023/03/27 10:14:50;;;;;;;8.77;1.48;;;12.60;82.70;;;;;;4936752;29;20282;-80
2023/03/27 10:17:25;;;;;;;3.42;1.02;;;12.50;81.20;;;;;;4937221;29;20182;-74
2023/03/27 10:20:09;;;;;;;19.10;1.40;;;12.10;80.40;;;;;;4952990;28;20182;-74
2023/03/27 10:22:41;;;;;;;4.43;1.20;;;11.90;83.10;;;;;;4938457;29;20167;-75
2023/03/27 10:25:19;;;;;;;9.50;1.40;;;12.00;84.80;;;;;;4936642;29;20211;-75
2023/03/27 10:28:16;;;;;;;7.85;1.50;;;11.90;83.10;;;;;;4937491;29;20171;-75
2023/03/27 10:31:03;;;;;;;7.30;1.35;;;11.70;82.30;;;;;;4937756;29;20178;-74
2023/03/27 10:33:48;;;;;;;6.18;1.10;;;11.70;84.20;;;;;;4937576;29;20191;-74
2023/03/27 10:36:33;;;;;;;6.10;1.00;;;11.80;83.00;;;;;;4936599;29;20189;-74
2023/03/27 10:39:10;;;;;;;5.90;1.00;;;11.80;79.10;;;;;;4952287;29;20230;-75
2023/03/27 10:42:09;;;;;;;3.80;1.20;;;11.80;80.50;;;;;;4940229;28;20187;-75
2023/03/27 10:44:39;;;;;;;3.95;1.10;;;11.90;80.20;;;;;;4952128;29;20222;-75
2023/03/27 10:47:19;;;;;;;3.22;1.00;;;11.90;80.70;;;;;;4936173;29;20261;-74
2023/03/27 10:49:50;;;;;;;8.77;1.38;;;12.00;78.90;;;;;;4935903;29;20266;-75
2023/03/27 10:52:54;;;;;;;4.18;1.50;;;12.00;77.00;;;;;;4935985;29;20190;-75
2023/03/27 10:56:16;;;;;;;7.07;1.48;;;11.90;76.40;;;;;;4952746;29;20175;-75
2023/03/27 10:58:57;;;;;;;5.30;1.48;;;11.70;74.30;;;;;;4937867;29;20171;-75
2023/03/27 11:01:38;;;;;;;5.28;1.35;;;11.50;76.70;;;;;;4936088;29;20179;-77
2023/03/27 11:04:19;;;;;;;6.65;1.50;;;11.40;78.50;;;;;;4936176;29;20229;-75
2023/03/27 11:06:53;;;;;;;5.47;1.50;;;11.40;79.80;;;;;;4935888;29;20278;-76
2023/03/27 11:09:33;;;;;;;7.93;1.40;;;11.40;80.40;;;;;;4936739;29;20180;-75
2023/03/27 11:12:10;;;;;;;4.68;1.20;;;11.70;80.70;;;;;;4937211;29;20247;-75
2023/03/27 11:15:03;;;;;;;7.80;1.20;;;11.70;78.00;;;;;;4935933;29;20223;-75
2023/03/27 11:17:44;;;;;;;7.40;1.35;;;11.70;77.10;;;;;;4952502;29;20179;-75
2023/03/27 11:20:49;;;;;;;5.78;1.35;;;11.80;76.80;;;;;;4948968;28;20195;-75
2023/03/27 11:23:56;;;;;;;11.55;1.45;;;11.70;78.60;;;;;;4944714;28;20242;-75
2023/03/27 11:26:49;;;;;;;6.22;1.40;;;11.40;82.60;;;;;;4936539;29;20177;-76
2023/03/27 11:29:28;;;;;;;7.65;1.30;;;11.10;90.90;;;;;;4951628;29;20185;-77
2023/03/27 11:32:03;;;;;;;5.75;1.20;;;10.70;91.70;;;;;;4920279;29;20194;-74
2023/03/27 11:34:58;;;;;;;5.13;1.10;;;10.40;92.40;;;;;;4951518;29;20634;-75
2023/03/27 11:38:05;;;;;;;5.70;1.40;;;10.00;93.50;;;;;;4935902;29;20268;-74
2023/03/27 11:40:41;;;;;;;5.40;1.50;;;9.70;94.40;;;;;;4935545;29;20620;-74
2023/03/27 11:43:10;;;;;;;9.13;1.38;;;9.60;95.20;;;;;;4935969;29;20183;-74
2023/03/27 11:46:06;;;;;;;9.98;1.30;;;9.60;96.10;;;;;;4936470;29;20198;-73
2023/03/27 11:49:00;;;;;;;5.35;1.13;;;9.70;96.50;;;;;;4935171;29;20183;-74
2023/03/27 11:51:41;;;;;;;7.40;1.23;;;9.90;97.10;;;;;;4935185;29;20184;-74
2023/03/27 11:54:48;;;;;;;8.68;1.70;;;10.10;97.80;;;;;;4951793;29;20179;-73
2023/03/27 11:57:25;;;;;;;7.85;1.35;;;10.20;97.80;;;;;;4935534;29;20176;-74
2023/03/27 12:00:28;;;;;;;4.85;1.25;;;10.40;97.50;;;;;;4935387;29;20283;-74
2023/03/27 12:03:13;;;;;;;4.57;1.05;;;10.50;95.60;;;;;;4935320;29;20687;-73
2023/03/27 12:06:31;;;;;;;5.70;1.63;;;10.50;95.00;;;;;;4935562;29;20201;-74
2023/03/27 12:09:01;;;;;;;8.63;1.20;;;10.50;93.70;;;;;;4948590;29;20195;-75
2023/03/27 12:11:41;;;;;;;9.70;1.58;;;10.50;93.00;;;;;;4951123;28;20186;-77
2023/03/27 12:14:13;;;;;;;5.60;1.58;;;10.50;92.50;;;;;;4934934;29;20178;-75
2023/03/27 12:16:46;;;;;;;8.85;2.10;;;10.50;91.40;;;;;;4934360;29;20230;-75
2023/03/27 12:19:36;;;;;;;8.10;1.50;;;10.50;90.50;;;;;;4951298;29;20268;-75
2023/03/27 12:22:55;;;;;;;8.48;1.42;;;10.60;91.10;;;;;;4948498;29;20183;-74
2023/03/27 12:25:51;;;;;;;8.40;1.67;;;10.70;90.80;;;;;;4939382;29;20191;-76
2023/03/27 12:28:37;;;;;;;7.13;1.33;;;10.50;90.20;;;;;;4948433;29;20226;-74
2023/03/27 12:31:15;;;;;;;4.35;1.30;;;10.50;90.20;;;;;;4951420;28;20179;-75
2023/03/27 12:34:04;;;;;;;3.72;1.13;;;10.50;90.00;;;;;;4950517;29;20190;-74
2023/03/27 12:36:38;;;;;;;7.82;1.50;;;10.50;88.80;;;;;;4936494;29;20199;-76
2023/03/27 12:39:17;;;;;;;6.97;1.48;;;10.50;88.20;;;;;;4950909;28;20619;-74
2023/03/27 12:41:44;;;;;;;4.53;1.00;;;10.40;89.00;;;;;;4935066;28;20278;-74
2023/03/27 12:44:29;;;;;;;5.35;1.50;;;10.50;90.00;;;;;;4950201;29;20258;-73
2023/03/27 12:47:18;;;;;;;8.73;1.63;;;10.60;90.10;;;;;;4950602;29;20198;-74
2023/03/27 12:49:54;;;;;;;4.00;1.17;;;10.50;90.20;;;;;;4934649;29;20175;-74
2023/03/27 12:52:25;;;;;;;7.75;1.40;;;10.50;90.60;;;;;;4934680;29;20182;-76
2023/03/27 12:55:06;;;;;;;7.13;1.40;;;10.50;90.40;;;;;;4935844;29;20237;-74
2023/03/27 12:57:55;;;;;;;7.53;1.40;;;10.60;89.70;;;;;;4936159;29;20194;-73
2023/03/27 13:00:58;;;;;;;7.55;1.55;;;10.80;88.50;;;;;;4941712;28;20211;-75
2023/03/27 13:04:06;;;;;;;5.47;1.30;;;10.70;87.20;;;;;;4935032;29;20203;-74
2023/03/27 13:07:11;;;;;;;7.47;1.25;;;10.70;87.80;;;;;;4932625;29;20287;-80
2023/03/27 13:10:34;;;;;;;5.65;1.10;;;10.60;88.80;;;;;;4934040;29;20195;-75
2023/03/27 13:13:48;;;;;;;8.75;1.30;;;10.70;90.00;;;;;;4953431;28;20242;-76
2023/03/27 13:16:21;;;;;;;7.35;1.50;;;10.60;90.70;;;;;;4945285;29;20285;-75
2023/03/27 13:19:04;;;;;;;10.85;1.80;;;10.50;90.70;;;;;;4954328;29;20187;-74
2023/03/27 13:22:19;;;;;;;10.35;1.70;;;10.40;91.10;;;;;;4954401;29;20206;-80
2023/03/27 13:24:52;;;;;;;8.30;1.50;;;10.30;91.70;;;;;;4923758;29;20659;-74
2023/03/27 13:28:06;;;;;;;11.20;1.45;;;10.30;92.20;;;;;;4953790;28;20274;-75
2023/03/27 13:30:38;;;;;;;6.80;1.20;;;10.20;92.10;;;;;;4937626;29;20179;-76
2023/03/27 13:33:23;;;;;;;10.43;1.75;;;9.90;93.00;;;;;;4937882;29;20216;-76
2023/03/27 13:35:50;;;;;;;7.63;1.58;;;9.60;94.40;;;;;;4952899;29;20183;-74
2023/03/27 13:38:16;;;;;;;12.70;2.20;;;9.40;95.20;;;;;;4953085;29;20198;-74
2023/03/27 13:41:35;;;;;;;6.40;1.35;;;9.30;95.80;;;;;;4938903;29;20275;-75
2023/03/27 13:44:10;;;;;;;7.63;1.65;;;9.20;96.90;;;;;;4938047;29;20670;-75